createdAt,value
2023-03-10T00:00:33.054Z,74.86
2023-03-10T00:01:33.060Z,75.00
2023-03-10T00:02:33.032Z,74.79
2023-03-10T00:03:33.019Z,74.86
2023-03-10T00:04:33.068Z,74.86
2023-03-10T00:05:33.065Z,74.90
2023-03-10T00:06:38.041Z,74.76
2023-03-10T00:07:32.982Z,75.20
2023-03-10T00:08:32.969Z,75.31
2023-03-10T00:09:32.951Z,75.57
2023-03-10T00:10:32.951Z,75.57
2023-03-10T00:11:32.950Z,75.51
2023-03-10T00:12:32.937Z,76.02
2023-03-10T00:13:32.912Z,76.12
2023-03-10T00:14:32.899Z,76.43
2023-03-10T00:15:32.929Z,76.12
2023-03-10T00:16:32.897Z,76.22
2023-03-10T00:17:37.887Z,76.12
2023-03-10T00:18:32.850Z,76.02
2023-03-10T00:19:32.846Z,75.82
2023-03-10T00:20:32.830Z,76.16
2023-03-10T00:21:32.838Z,76.32
2023-03-10T00:22:32.828Z,76.36
2023-03-10T00:23:32.806Z,76.26
2023-03-10T00:24:32.789Z,76.67
2023-03-10T00:25:32.774Z,76.53
2023-03-10T00:26:32.783Z,76.53
2023-03-10T00:27:32.768Z,76.32
2023-03-10T00:28:37.785Z,76.12
2023-03-10T00:29:32.733Z,76.02
2023-03-10T00:30:33.067Z,76.02
2023-03-10T00:31:32.762Z,76.12
2023-03-10T00:32:32.741Z,75.92
2023-03-10T00:33:32.687Z,76.02
2023-03-10T00:34:32.690Z,75.95
2023-03-10T00:35:32.705Z,76.46
2023-03-10T00:36:32.656Z,76.12
2023-03-10T00:37:32.653Z,76.26
2023-03-10T00:38:32.783Z,76.32
2023-03-10T00:39:37.650Z,76.22
2023-03-10T00:40:32.628Z,75.92
2023-03-10T00:41:32.602Z,76.36
2023-03-10T00:42:32.601Z,76.53
2023-03-10T00:43:32.582Z,76.16
2023-03-10T00:44:32.565Z,76.36
2023-03-10T00:45:32.556Z,75.95
2023-03-10T00:46:32.576Z,76.26
2023-03-10T00:47:32.539Z,76.26
2023-03-10T00:48:32.520Z,76.36
2023-03-10T00:49:32.517Z,76.16
2023-03-10T00:50:37.521Z,76.16
2023-03-10T00:51:32.489Z,76.06
2023-03-10T00:52:32.506Z,75.85
2023-03-10T00:53:32.468Z,76.16
2023-03-10T00:54:32.481Z,76.26
2023-03-10T00:55:32.444Z,76.26
2023-03-10T00:56:32.436Z,76.67
2023-03-10T00:57:32.432Z,76.56
2023-03-10T00:58:32.427Z,76.16
2023-03-10T00:59:47.761Z,76.56
2023-03-10T01:00:32.394Z,76.97
2023-03-10T01:01:37.466Z,76.36
2023-03-10T01:02:32.381Z,76.26
2023-03-10T01:03:32.353Z,76.67
2023-03-10T01:04:32.383Z,76.36
2023-03-10T01:05:32.330Z,76.56
2023-03-10T01:06:32.315Z,76.56
2023-03-10T01:07:32.322Z,76.56
2023-03-10T01:08:32.293Z,76.67
2023-03-10T01:09:32.283Z,76.56
2023-03-10T01:10:32.299Z,76.87
2023-03-10T01:11:32.281Z,76.97
2023-03-10T01:12:37.281Z,77.08
2023-03-10T01:13:32.250Z,76.56
2023-03-10T01:14:32.226Z,76.97
2023-03-10T01:15:32.220Z,77.28
2023-03-10T01:16:32.292Z,76.97
2023-03-10T01:17:32.200Z,77.08
2023-03-10T01:18:32.183Z,76.97
2023-03-10T01:19:32.173Z,76.97
2023-03-10T01:20:32.168Z,77.01
2023-03-10T01:21:32.156Z,76.87
2023-03-10T01:22:32.164Z,77.42
2023-03-10T01:23:37.149Z,76.87
2023-03-10T01:24:32.119Z,76.97
2023-03-10T01:25:32.102Z,77.28
2023-03-10T01:26:32.173Z,76.90
2023-03-10T01:27:32.092Z,76.70
2023-03-10T01:28:32.086Z,77.22
2023-03-10T01:29:32.065Z,77.38
2023-03-10T01:30:32.050Z,77.42
2023-03-10T01:31:32.092Z,77.62
2023-03-10T01:32:32.148Z,77.62
2023-03-10T01:33:32.022Z,78.03
2023-03-10T01:34:37.078Z,77.62
2023-03-10T01:35:32.132Z,77.93
2023-03-10T01:36:31.981Z,78.23
2023-03-10T01:37:31.980Z,78.85
2023-03-10T01:38:31.968Z,78.44
2023-03-10T01:39:31.955Z,78.64
2023-03-10T01:40:31.949Z,78.85
2023-03-10T01:41:31.926Z,78.95
2023-03-10T01:42:31.941Z,79.57
2023-03-10T01:43:31.900Z,79.66
2023-03-10T01:44:31.888Z,78.95
2023-03-10T01:45:36.894Z,80.18
2023-03-10T01:46:31.984Z,80.79
2023-03-10T01:47:31.880Z,80.62
2023-03-10T01:48:31.838Z,80.42
2023-03-10T01:49:31.831Z,81.34
2023-03-10T01:50:31.817Z,81.54
2023-03-10T01:51:31.805Z,81.74
2023-03-10T01:52:31.822Z,82.15
2023-03-10T01:53:31.790Z,82.46
2023-03-10T01:54:31.769Z,81.95
2023-03-10T01:55:31.757Z,82.77
2023-03-10T01:56:36.770Z,82.56
2023-03-10T01:57:31.734Z,82.70
2023-03-10T01:58:31.769Z,83.07
2023-03-10T01:59:31.719Z,83.62
2023-03-10T02:00:31.762Z,83.42
2023-03-10T02:01:31.692Z,83.32
2023-03-10T02:02:31.697Z,83.62
2023-03-10T02:03:31.688Z,83.83
2023-03-10T02:04:31.684Z,83.22
2023-03-10T02:05:31.648Z,83.93
2023-03-10T02:06:31.636Z,83.93
2023-03-10T02:07:36.647Z,84.55
2023-03-10T02:08:31.621Z,84.24
2023-03-10T02:09:31.599Z,84.34
2023-03-10T02:10:31.610Z,84.65
2023-03-10T02:11:31.605Z,85.16
2023-03-10T02:12:31.576Z,85.16
2023-03-10T02:13:31.573Z,85.06
2023-03-10T02:14:31.575Z,85.06
2023-03-10T02:15:31.542Z,85.10
2023-03-10T02:16:31.574Z,85.36
2023-03-10T02:17:31.536Z,85.36
2023-03-10T02:18:36.542Z,85.67
2023-03-10T02:19:31.493Z,85.71
2023-03-10T02:20:31.484Z,85.57
2023-03-10T02:21:31.517Z,85.97
2023-03-10T02:22:31.478Z,85.71
2023-03-10T02:23:31.460Z,85.71
2023-03-10T02:24:31.440Z,85.91
2023-03-10T02:25:31.428Z,86.12
2023-03-10T02:26:31.422Z,85.81
2023-03-10T02:27:31.409Z,85.71
2023-03-10T02:28:31.434Z,85.81
2023-03-10T02:29:42.676Z,85.91
2023-03-10T02:30:32.378Z,86.29
2023-03-10T02:31:31.399Z,86.02
2023-03-10T02:32:31.436Z,86.12
2023-03-10T02:33:31.352Z,86.32
2023-03-10T02:34:31.357Z,86.32
2023-03-10T02:35:31.354Z,86.43
2023-03-10T02:36:31.308Z,86.43
2023-03-10T02:37:31.298Z,86.32
2023-03-10T02:38:31.296Z,86.53
2023-03-10T02:39:31.274Z,86.53
2023-03-10T02:40:36.348Z,86.43
2023-03-10T02:41:31.255Z,86.43
2023-03-10T02:42:31.243Z,86.12
2023-03-10T02:43:31.237Z,86.12
2023-03-10T02:44:31.219Z,86.22
2023-03-10T02:45:31.267Z,86.12
2023-03-10T02:46:31.218Z,86.43
2023-03-10T02:47:31.188Z,86.53
2023-03-10T02:48:31.186Z,86.32
2023-03-10T02:49:31.167Z,86.22
2023-03-10T02:50:31.153Z,86.22
2023-03-10T02:51:36.166Z,86.12
2023-03-10T02:52:31.169Z,86.02
2023-03-10T02:53:31.145Z,86.02
2023-03-10T02:54:31.110Z,86.32
2023-03-10T02:55:31.104Z,86.12
2023-03-10T02:56:31.100Z,86.32
2023-03-10T02:57:31.074Z,86.32
2023-03-10T02:58:31.111Z,86.32
2023-03-10T02:59:31.049Z,86.22
2023-03-10T03:00:31.063Z,86.22
2023-03-10T03:01:31.106Z,86.22
2023-03-10T03:02:36.044Z,86.46
2023-03-10T03:03:31.056Z,86.36
2023-03-10T03:04:31.027Z,86.26
2023-03-10T03:05:30.993Z,86.32
2023-03-10T03:06:30.988Z,86.46
2023-03-10T03:07:30.969Z,86.36
2023-03-10T03:08:30.948Z,86.46
2023-03-10T03:09:30.989Z,86.43
2023-03-10T03:10:30.954Z,86.46
2023-03-10T03:11:30.951Z,86.22
2023-03-10T03:12:30.928Z,86.26
2023-03-10T03:13:35.915Z,86.36
2023-03-10T03:14:30.933Z,86.26
2023-03-10T03:15:30.875Z,86.36
2023-03-10T03:16:30.947Z,86.46
2023-03-10T03:17:30.873Z,86.67
2023-03-10T03:18:30.841Z,86.57
2023-03-10T03:19:30.840Z,86.77
2023-03-10T03:20:30.819Z,86.57
2023-03-10T03:21:30.803Z,86.77
2023-03-10T03:22:30.810Z,86.63
2023-03-10T03:23:30.784Z,86.67
2023-03-10T03:24:35.805Z,86.88
2023-03-10T03:25:30.767Z,86.88
2023-03-10T03:26:30.751Z,86.88
2023-03-10T03:27:30.736Z,86.67
2023-03-10T03:28:30.759Z,86.57
2023-03-10T03:29:30.726Z,86.57
2023-03-10T03:30:30.702Z,86.77
2023-03-10T03:31:30.793Z,86.77
2023-03-10T03:32:30.742Z,86.57
2023-03-10T03:33:30.688Z,86.67
2023-03-10T03:34:30.732Z,86.98
2023-03-10T03:35:35.711Z,87.49
2023-03-10T03:36:30.641Z,87.38
2023-03-10T03:37:30.631Z,88.20
2023-03-10T03:38:30.613Z,88.00
2023-03-10T03:39:30.684Z,88.00
2023-03-10T03:40:30.617Z,88.10
2023-03-10T03:41:30.578Z,88.41
2023-03-10T03:42:30.569Z,88.71
2023-03-10T03:43:30.555Z,89.03
2023-03-10T03:44:30.556Z,89.03
2023-03-10T03:45:30.535Z,89.58
2023-03-10T03:46:35.597Z,89.84
2023-03-10T03:47:30.517Z,89.58
2023-03-10T03:48:30.522Z,89.78
2023-03-10T03:49:30.549Z,89.74
2023-03-10T03:50:30.484Z,89.78
2023-03-10T03:51:30.471Z,89.78
2023-03-10T03:52:30.472Z,89.06
2023-03-10T03:53:30.444Z,89.78
2023-03-10T03:54:30.446Z,90.19
2023-03-10T03:55:30.422Z,89.78
2023-03-10T03:56:30.412Z,90.39
2023-03-10T03:57:35.422Z,90.30
2023-03-10T03:58:30.412Z,89.47
2023-03-10T03:59:30.388Z,90.60
2023-03-10T04:00:30.378Z,91.01
2023-03-10T04:01:30.356Z,91.01
2023-03-10T04:02:30.389Z,90.50
2023-03-10T04:03:30.426Z,91.36
2023-03-10T04:04:30.363Z,91.11
2023-03-10T04:05:30.354Z,91.67
2023-03-10T04:06:30.312Z,91.56
2023-03-10T04:07:30.294Z,91.73
2023-03-10T04:08:35.303Z,91.73
2023-03-10T04:09:30.294Z,91.67
2023-03-10T04:10:30.282Z,91.97
2023-03-10T04:11:30.250Z,92.49
2023-03-10T04:12:30.237Z,93.10
2023-03-10T04:13:30.227Z,93.00
2023-03-10T04:14:30.225Z,92.59
2023-03-10T04:15:30.337Z,93.20
2023-03-10T04:16:30.256Z,93.20
2023-03-10T04:17:30.182Z,93.00
2023-03-10T04:18:30.180Z,93.41
2023-03-10T04:19:35.193Z,93.82
2023-03-10T04:20:30.150Z,93.62
2023-03-10T04:21:30.159Z,94.23
2023-03-10T04:22:30.167Z,94.54
2023-03-10T04:23:30.117Z,94.78
2023-03-10T04:24:30.118Z,94.78
2023-03-10T04:25:30.091Z,94.99
2023-03-10T04:26:30.080Z,95.20
2023-03-10T04:27:30.067Z,95.20
2023-03-10T04:28:30.081Z,94.89
2023-03-10T04:29:30.059Z,94.99
2023-03-10T04:30:35.059Z,94.89
2023-03-10T04:31:30.169Z,94.89
2023-03-10T04:32:30.084Z,94.89
2023-03-10T04:33:30.004Z,94.48
2023-03-10T04:34:30.027Z,94.58
2023-03-10T04:35:29.981Z,94.37
2023-03-10T04:36:29.980Z,94.17
2023-03-10T04:37:29.993Z,94.37
2023-03-10T04:38:29.960Z,94.58
2023-03-10T04:39:29.977Z,94.48
2023-03-10T04:40:29.981Z,93.86
2023-03-10T04:41:34.940Z,94.01
2023-03-10T04:42:29.905Z,93.86
2023-03-10T04:43:29.894Z,94.17
2023-03-10T04:44:31.318Z,93.96
2023-03-10T04:45:29.897Z,93.76
2023-03-10T04:46:29.927Z,93.25
2023-03-10T04:47:29.848Z,93.39
2023-03-10T04:48:29.839Z,93.45
2023-03-10T04:49:29.836Z,93.35
2023-03-10T04:50:29.830Z,93.25
2023-03-10T04:51:29.810Z,93.25
2023-03-10T04:52:34.848Z,92.94
2023-03-10T04:53:29.781Z,92.98
2023-03-10T04:54:29.793Z,92.98
2023-03-10T04:55:29.763Z,93.08
2023-03-10T04:56:29.750Z,93.19
2023-03-10T04:57:29.736Z,93.19
2023-03-10T04:58:29.746Z,92.94
2023-03-10T04:59:29.734Z,93.08
2023-03-10T05:00:29.878Z,93.29
2023-03-10T05:01:29.727Z,93.29
2023-03-10T05:02:29.683Z,93.25
2023-03-10T05:03:34.692Z,93.15
2023-03-10T05:04:29.737Z,93.15
2023-03-10T05:05:29.646Z,92.68
2023-03-10T05:06:29.635Z,92.68
2023-03-10T05:07:29.641Z,92.63
2023-03-10T05:08:29.634Z,92.32
2023-03-10T05:09:29.630Z,92.53
2023-03-10T05:10:29.608Z,92.32
2023-03-10T05:11:29.594Z,92.43
2023-03-10T05:12:29.575Z,92.83
2023-03-10T05:13:31.834Z,92.83
2023-03-10T05:14:34.595Z,92.94
2023-03-10T05:15:29.532Z,93.15
2023-03-10T05:16:29.618Z,92.63
2023-03-10T05:17:29.533Z,92.53
2023-03-10T05:18:29.511Z,92.63
2023-03-10T05:19:29.496Z,92.02
2023-03-10T05:20:29.504Z,92.02
2023-03-10T05:21:29.477Z,92.02
2023-03-10T05:22:29.504Z,91.82
2023-03-10T05:23:29.441Z,91.82
2023-03-10T05:24:29.474Z,91.91
2023-03-10T05:25:34.449Z,92.08
2023-03-10T05:26:29.408Z,91.56
2023-03-10T05:27:29.396Z,91.50
2023-03-10T05:28:29.407Z,91.30
2023-03-10T05:29:29.394Z,91.30
2023-03-10T05:30:29.364Z,91.30
2023-03-10T05:31:29.500Z,90.75
2023-03-10T05:32:29.381Z,90.54
2023-03-10T05:33:31.389Z,90.84
2023-03-10T05:34:29.359Z,91.05
2023-03-10T05:35:29.348Z,90.95
2023-03-10T05:36:34.320Z,91.05
2023-03-10T05:37:29.296Z,90.99
2023-03-10T05:38:29.306Z,91.05
2023-03-10T05:39:29.288Z,91.16
2023-03-10T05:40:29.316Z,90.75
2023-03-10T05:41:29.259Z,90.75
2023-03-10T05:42:29.231Z,90.64
2023-03-10T05:43:29.222Z,90.44
2023-03-10T05:44:29.222Z,89.72
2023-03-10T05:45:29.198Z,89.92
2023-03-10T05:46:29.274Z,90.44
2023-03-10T05:47:34.195Z,89.51
2023-03-10T05:48:29.167Z,89.72
2023-03-10T05:49:29.163Z,89.72
2023-03-10T05:50:29.143Z,89.62
2023-03-10T05:51:29.128Z,90.13
2023-03-10T05:52:29.162Z,89.62
2023-03-10T05:53:29.108Z,89.42
2023-03-10T05:54:29.106Z,89.62
2023-03-10T05:55:29.100Z,89.62
2023-03-10T05:56:29.097Z,89.83
2023-03-10T05:57:29.066Z,89.62
2023-03-10T05:58:34.104Z,89.51
2023-03-10T05:59:29.064Z,89.62
2023-03-10T06:00:29.029Z,89.11
2023-03-10T06:01:29.018Z,88.49
2023-03-10T06:02:29.005Z,88.59
2023-03-10T06:03:29.087Z,88.49
2023-03-10T06:04:29.070Z,88.24
2023-03-10T06:05:28.985Z,88.35
2023-03-10T06:06:28.972Z,88.56
2023-03-10T06:07:28.952Z,87.94
2023-03-10T06:08:28.953Z,87.63
2023-03-10T06:09:33.962Z,87.94
2023-03-10T06:10:28.948Z,87.73
2023-03-10T06:11:28.907Z,87.94
2023-03-10T06:12:29.095Z,87.63
2023-03-10T06:13:28.892Z,87.43
2023-03-10T06:14:28.881Z,87.63
2023-03-10T06:15:28.873Z,87.29
2023-03-10T06:16:28.907Z,87.49
2023-03-10T06:17:28.840Z,87.43
2023-03-10T06:18:28.884Z,87.43
2023-03-10T06:19:28.842Z,87.29
2023-03-10T06:20:33.841Z,87.32
2023-03-10T06:21:28.801Z,86.88
2023-03-10T06:22:31.148Z,86.77
2023-03-10T06:23:28.774Z,86.98
2023-03-10T06:24:28.768Z,86.88
2023-03-10T06:25:28.774Z,86.98
2023-03-10T06:26:28.744Z,86.98
2023-03-10T06:27:28.730Z,86.88
2023-03-10T06:28:28.744Z,86.77
2023-03-10T06:29:28.708Z,86.77
2023-03-10T06:30:28.706Z,86.88
2023-03-10T06:31:33.727Z,86.36
2023-03-10T06:32:28.716Z,86.36
2023-03-10T06:33:28.665Z,86.16
2023-03-10T06:34:28.682Z,86.16
2023-03-10T06:35:28.672Z,85.96
2023-03-10T06:36:28.639Z,85.75
2023-03-10T06:37:28.641Z,85.96
2023-03-10T06:38:28.612Z,85.44
2023-03-10T06:39:28.600Z,85.85
2023-03-10T06:40:28.616Z,85.55
2023-03-10T06:41:28.582Z,85.14
2023-03-10T06:42:33.592Z,85.14
2023-03-10T06:43:28.562Z,85.55
2023-03-10T06:44:28.608Z,85.40
2023-03-10T06:45:28.551Z,85.40
2023-03-10T06:46:28.557Z,84.83
2023-03-10T06:47:28.513Z,85.03
2023-03-10T06:48:28.503Z,85.10
2023-03-10T06:49:28.497Z,84.99
2023-03-10T06:50:30.469Z,84.63
2023-03-10T06:51:28.476Z,85.30
2023-03-10T06:52:28.469Z,85.10
2023-03-10T06:53:33.470Z,84.99
2023-03-10T06:54:28.441Z,84.79
2023-03-10T06:55:28.435Z,84.89
2023-03-10T06:56:28.412Z,84.58
2023-03-10T06:57:28.405Z,84.89
2023-03-10T06:58:28.407Z,84.69
2023-03-10T06:59:28.381Z,84.38
2023-03-10T07:00:28.423Z,84.38
2023-03-10T07:01:28.473Z,84.69
2023-03-10T07:02:28.345Z,84.38
2023-03-10T07:03:28.344Z,84.34
2023-03-10T07:04:33.400Z,84.24
2023-03-10T07:05:28.321Z,84.44
2023-03-10T07:06:28.301Z,83.76
2023-03-10T07:07:28.294Z,83.97
2023-03-10T07:08:28.282Z,84.55
2023-03-10T07:09:28.265Z,83.62
2023-03-10T07:10:28.288Z,83.11
2023-03-10T07:11:28.243Z,83.52
2023-03-10T07:12:28.234Z,82.56
2023-03-10T07:13:28.220Z,82.46
2023-03-10T07:14:28.204Z,82.97
2023-03-10T07:15:33.264Z,83.28
2023-03-10T07:16:28.227Z,82.67
2023-03-10T07:17:28.180Z,82.87
2023-03-10T07:18:28.162Z,82.67
2023-03-10T07:19:28.153Z,82.77
2023-03-10T07:20:28.154Z,82.67
2023-03-10T07:21:28.128Z,82.77
2023-03-10T07:22:28.176Z,82.56
2023-03-10T07:23:28.106Z,82.15
2023-03-10T07:24:28.096Z,82.56
2023-03-10T07:25:28.099Z,82.97
2023-03-10T07:26:33.094Z,82.05
2023-03-10T07:27:28.059Z,83.07
2023-03-10T07:28:28.068Z,82.42
2023-03-10T07:29:28.035Z,81.91
2023-03-10T07:30:28.036Z,81.71
2023-03-10T07:31:28.098Z,81.30
2023-03-10T07:32:28.068Z,81.20
2023-03-10T07:33:27.995Z,81.30
2023-03-10T07:34:27.992Z,81.71
2023-03-10T07:35:27.995Z,82.22
2023-03-10T07:36:27.956Z,81.91
2023-03-10T07:37:32.969Z,81.91
2023-03-10T07:38:27.937Z,81.60
2023-03-10T07:39:27.927Z,81.91
2023-03-10T07:40:28.143Z,81.71
2023-03-10T07:41:27.902Z,82.22
2023-03-10T07:42:27.894Z,82.12
2023-03-10T07:43:27.886Z,82.32
2023-03-10T07:44:27.881Z,82.12
2023-03-10T07:45:27.932Z,81.81
2023-03-10T07:46:27.929Z,82.01
2023-03-10T07:47:27.855Z,81.91
2023-03-10T07:48:32.887Z,81.81
2023-03-10T07:49:27.818Z,81.71
2023-03-10T07:50:27.861Z,81.71
2023-03-10T07:51:27.815Z,81.60
2023-03-10T07:52:27.778Z,81.65
2023-03-10T07:53:27.776Z,81.65
2023-03-10T07:54:27.754Z,81.85
2023-03-10T07:55:27.756Z,82.26
2023-03-10T07:56:27.880Z,82.56
2023-03-10T07:57:27.725Z,83.07
2023-03-10T07:58:27.726Z,83.48
2023-03-10T07:59:32.725Z,83.79
2023-03-10T08:00:27.749Z,83.34
2023-03-10T08:01:27.700Z,83.18
2023-03-10T08:02:27.722Z,83.89
2023-03-10T08:03:27.870Z,83.69
2023-03-10T08:04:27.839Z,84.91
2023-03-10T08:05:27.688Z,85.06
2023-03-10T08:06:27.644Z,85.06
2023-03-10T08:07:27.630Z,85.06
2023-03-10T08:08:27.626Z,83.73
2023-03-10T08:09:27.590Z,85.57
2023-03-10T08:10:32.610Z,85.57
2023-03-10T08:11:27.584Z,85.67
2023-03-10T08:12:27.560Z,86.22
2023-03-10T08:13:27.572Z,87.04
2023-03-10T08:14:27.560Z,87.90
2023-03-10T08:15:27.533Z,88.51
2023-03-10T08:16:27.595Z,89.33
2023-03-10T08:17:27.500Z,89.58
2023-03-10T08:18:27.486Z,89.68
2023-03-10T08:19:27.573Z,89.68
2023-03-10T08:20:27.542Z,89.98
2023-03-10T08:21:32.475Z,89.83
2023-03-10T08:22:27.440Z,91.01
2023-03-10T08:23:27.431Z,90.64
2023-03-10T08:24:27.416Z,91.01
2023-03-10T08:25:27.419Z,90.95
2023-03-10T08:26:27.440Z,90.75
2023-03-10T08:27:29.180Z,90.54
2023-03-10T08:28:27.373Z,91.26
2023-03-10T08:29:27.362Z,90.64
2023-03-10T08:30:27.365Z,90.84
2023-03-10T08:31:27.412Z,90.75
2023-03-10T08:32:34.205Z,91.26
2023-03-10T08:33:27.320Z,91.22
2023-03-10T08:34:27.305Z,90.54
2023-03-10T08:35:27.334Z,90.95
2023-03-10T08:36:27.287Z,88.39
2023-03-10T08:37:27.280Z,88.29
2023-03-10T08:38:27.293Z,87.98
2023-03-10T08:39:27.761Z,86.85
2023-03-10T08:40:27.253Z,85.93
2023-03-10T08:41:27.248Z,85.01
2023-03-10T08:42:27.223Z,85.31
2023-03-10T08:43:32.274Z,85.31
2023-03-10T08:44:27.223Z,85.01
2023-03-10T08:45:27.198Z,85.07
2023-03-10T08:46:27.214Z,84.05
2023-03-10T08:47:29.856Z,83.84
2023-03-10T08:48:27.152Z,84.25
2023-03-10T08:49:27.152Z,83.29
2023-03-10T08:50:27.193Z,83.29
2023-03-10T08:51:27.144Z,83.50
2023-03-10T08:52:27.113Z,84.05
2023-03-10T08:53:27.099Z,83.60
2023-03-10T08:54:32.748Z,83.09
2023-03-10T08:55:27.084Z,83.70
2023-03-10T08:56:27.089Z,83.50
2023-03-10T08:57:27.058Z,83.29
2023-03-10T08:58:27.045Z,82.98
2023-03-10T08:59:27.047Z,83.66
2023-03-10T09:00:27.029Z,81.86
2023-03-10T09:01:27.027Z,81.86
2023-03-10T09:02:27.085Z,82.23
2023-03-10T09:03:28.916Z,81.41
2023-03-10T09:04:26.989Z,81.41
2023-03-10T09:05:32.002Z,81.41
2023-03-10T09:06:27.007Z,80.90
2023-03-10T09:07:27.022Z,81.01
2023-03-10T09:08:27.758Z,80.46
2023-03-10T09:09:26.987Z,80.76
2023-03-10T09:10:26.914Z,80.46
2023-03-10T09:11:26.939Z,78.85
2023-03-10T09:12:31.434Z,78.09
2023-03-10T09:13:27.880Z,77.75
2023-03-10T09:14:26.867Z,76.39
2023-03-10T09:15:26.896Z,77.11
2023-03-10T09:16:31.938Z,75.44
2023-03-10T09:17:26.840Z,76.29
2023-03-10T09:18:26.826Z,76.80
2023-03-10T09:19:26.808Z,76.80
2023-03-10T09:20:29.316Z,76.19
2023-03-10T09:21:26.841Z,75.98
2023-03-10T09:22:26.779Z,76.22
2023-03-10T09:23:26.812Z,75.88
2023-03-10T09:24:26.780Z,76.15
2023-03-10T09:25:26.740Z,75.47
2023-03-10T09:26:26.738Z,74.21
2023-03-10T09:27:31.803Z,72.21
2023-03-10T09:28:26.710Z,70.89
2023-03-10T09:29:42.263Z,69.54
2023-03-10T09:30:27.684Z,68.12
2023-03-10T09:31:26.742Z,68.12
2023-03-10T09:32:26.691Z,68.96
2023-03-10T09:33:26.692Z,68.28
2023-03-10T09:34:26.639Z,70.48
2023-03-10T09:35:26.683Z,70.51
2023-03-10T09:36:26.660Z,71.77
2023-03-10T09:37:26.609Z,73.26
2023-03-10T09:38:31.648Z,74.08
2023-03-10T09:39:26.650Z,74.62
2023-03-10T09:40:26.574Z,74.79
2023-03-10T09:41:26.583Z,74.73
2023-03-10T09:42:37.295Z,75.03
2023-03-10T09:43:26.559Z,76.15
2023-03-10T09:44:26.582Z,76.15
2023-03-10T09:45:26.559Z,75.95
2023-03-10T09:46:26.540Z,76.80
2023-03-10T09:47:26.500Z,77.00
2023-03-10T09:48:26.572Z,76.84
2023-03-10T09:49:31.499Z,77.41
2023-03-10T09:50:26.466Z,77.51
2023-03-10T09:51:26.519Z,76.93
2023-03-10T09:52:26.454Z,77.55
2023-03-10T09:53:26.437Z,77.86
2023-03-10T09:54:26.445Z,78.71
2023-03-10T09:55:26.420Z,78.47
2023-03-10T09:56:28.316Z,78.88
2023-03-10T09:57:26.432Z,77.96
2023-03-10T09:58:26.408Z,78.50
2023-03-10T09:59:26.379Z,78.61
2023-03-10T10:00:31.378Z,78.61
2023-03-10T10:01:26.352Z,78.09
2023-03-10T10:02:26.334Z,78.47
2023-03-10T10:03:26.372Z,78.71
2023-03-10T10:04:26.331Z,78.27
2023-03-10T10:05:26.300Z,77.86
2023-03-10T10:06:28.444Z,78.81
2023-03-10T10:07:26.278Z,77.89
2023-03-10T10:08:28.690Z,77.65
2023-03-10T10:09:26.333Z,77.96
2023-03-10T10:10:26.261Z,77.86
2023-03-10T10:11:31.345Z,78.00
2023-03-10T10:12:26.219Z,77.55
2023-03-10T10:13:26.208Z,77.45
2023-03-10T10:14:29.966Z,78.00
2023-03-10T10:15:26.210Z,77.65
2023-03-10T10:16:34.282Z,78.00
2023-03-10T10:17:26.270Z,77.65
2023-03-10T10:18:26.231Z,77.38
2023-03-10T10:19:26.145Z,77.55
2023-03-10T10:20:26.128Z,77.45
2023-03-10T10:21:33.464Z,77.79
2023-03-10T10:22:31.139Z,78.20
2023-03-10T10:23:26.093Z,78.06
2023-03-10T10:24:26.084Z,78.00
2023-03-10T10:25:26.096Z,77.86
2023-03-10T10:26:26.084Z,78.09
2023-03-10T10:27:26.087Z,78.16
2023-03-10T10:28:26.042Z,78.57
2023-03-10T10:29:26.033Z,78.41
2023-03-10T10:30:27.000Z,78.71
2023-03-10T10:31:26.105Z,78.81
2023-03-10T10:32:26.044Z,78.81
2023-03-10T10:33:31.026Z,78.71
2023-03-10T10:34:25.969Z,78.91
2023-03-10T10:35:25.964Z,79.32
2023-03-10T10:36:25.947Z,79.12
2023-03-10T10:37:25.946Z,79.12
2023-03-10T10:38:25.928Z,79.83
2023-03-10T10:39:28.000Z,79.73
2023-03-10T10:40:25.906Z,80.04
2023-03-10T10:41:25.900Z,79.46
2023-03-10T10:42:25.986Z,79.93
2023-03-10T10:43:25.872Z,80.65
2023-03-10T10:44:30.912Z,80.55
2023-03-10T10:45:25.847Z,81.10
2023-03-10T10:46:25.912Z,80.48
2023-03-10T10:47:25.846Z,80.99
2023-03-10T10:48:25.815Z,80.28
2023-03-10T10:49:25.805Z,80.38
2023-03-10T10:50:25.882Z,80.24
2023-03-10T10:51:25.782Z,80.58
2023-03-10T10:52:25.824Z,80.18
2023-03-10T10:53:25.809Z,81.10
2023-03-10T10:54:25.778Z,80.34
2023-03-10T10:55:30.758Z,80.79
2023-03-10T10:56:25.734Z,80.55
2023-03-10T10:57:25.726Z,80.34
2023-03-10T10:58:25.737Z,80.69
2023-03-10T10:59:25.721Z,80.38
2023-03-10T11:00:25.716Z,80.44
2023-03-10T11:01:25.705Z,80.58
2023-03-10T11:02:25.713Z,80.89
2023-03-10T11:03:25.658Z,80.55
2023-03-10T11:04:25.691Z,80.65
2023-03-10T11:05:25.627Z,80.14
2023-03-10T11:06:30.649Z,79.73
2023-03-10T11:07:25.617Z,78.61
2023-03-10T11:08:25.605Z,77.22
2023-03-10T11:09:25.580Z,77.18
2023-03-10T11:10:25.677Z,77.18
2023-03-10T11:11:25.562Z,77.08
2023-03-10T11:12:25.587Z,76.97
2023-03-10T11:13:25.546Z,77.28
2023-03-10T11:14:25.552Z,77.48
2023-03-10T11:15:25.575Z,77.28
2023-03-10T11:16:25.536Z,76.87
2023-03-10T11:17:30.530Z,75.85
2023-03-10T11:18:25.483Z,77.28
2023-03-10T11:19:25.473Z,77.28
2023-03-10T11:20:25.471Z,76.43
2023-03-10T11:21:25.449Z,75.61
2023-03-10T11:22:25.491Z,75.61
2023-03-10T11:23:25.429Z,75.82
2023-03-10T11:24:25.986Z,76.67
2023-03-10T11:25:25.403Z,76.46
2023-03-10T11:26:25.398Z,75.61
2023-03-10T11:27:25.395Z,76.16
2023-03-10T11:28:30.421Z,76.06
2023-03-10T11:29:25.467Z,75.95
2023-03-10T11:30:26.022Z,76.06
2023-03-10T11:31:25.428Z,76.97
2023-03-10T11:32:25.381Z,76.77
2023-03-10T11:33:25.329Z,77.01
2023-03-10T11:34:25.322Z,77.31
2023-03-10T11:35:25.301Z,77.52
2023-03-10T11:36:25.291Z,77.52
2023-03-10T11:37:25.298Z,77.42
2023-03-10T11:38:25.303Z,77.83
2023-03-10T11:39:30.288Z,77.72
2023-03-10T11:40:25.272Z,78.23
2023-03-10T11:41:25.225Z,78.64
2023-03-10T11:42:26.186Z,79.05
2023-03-10T11:43:25.213Z,78.64
2023-03-10T11:44:25.201Z,78.95
2023-03-10T11:45:25.181Z,79.05
2023-03-10T11:46:25.298Z,78.85
2023-03-10T11:47:25.170Z,79.39
2023-03-10T11:48:25.158Z,79.91
2023-03-10T11:49:25.138Z,80.18
2023-03-10T11:50:30.219Z,80.07
2023-03-10T11:51:25.114Z,79.46
2023-03-10T11:52:25.134Z,79.80
2023-03-10T11:53:25.103Z,80.73
2023-03-10T11:54:26.858Z,80.93
2023-03-10T11:55:25.069Z,81.44
2023-03-10T11:56:25.070Z,81.79
2023-03-10T11:57:25.125Z,82.20
2023-03-10T11:58:25.065Z,82.70
2023-03-10T11:59:25.044Z,82.05
2023-03-10T12:00:26.086Z,82.40
2023-03-10T12:01:30.045Z,82.60
2023-03-10T12:02:24.992Z,83.73
2023-03-10T12:03:25.030Z,83.11
2023-03-10T12:04:24.986Z,82.70
2023-03-10T12:05:25.014Z,83.62
2023-03-10T12:06:26.718Z,83.87
2023-03-10T12:07:24.937Z,84.28
2023-03-10T12:08:24.933Z,85.26
2023-03-10T12:09:24.911Z,85.36
2023-03-10T12:10:24.930Z,86.18
2023-03-10T12:11:24.886Z,86.32
2023-03-10T12:12:29.905Z,86.22
2023-03-10T12:13:24.874Z,86.83
2023-03-10T12:14:24.853Z,86.73
2023-03-10T12:15:24.846Z,87.04
2023-03-10T12:16:24.884Z,87.70
2023-03-10T12:17:24.843Z,87.70
2023-03-10T12:18:26.843Z,88.00
2023-03-10T12:19:24.804Z,87.59
2023-03-10T12:20:24.827Z,88.00
2023-03-10T12:21:24.775Z,88.82
2023-03-10T12:22:24.767Z,88.20
2023-03-10T12:23:29.815Z,88.10
2023-03-10T12:24:24.742Z,88.41
2023-03-10T12:25:24.728Z,88.41
2023-03-10T12:26:24.720Z,88.41
2023-03-10T12:27:24.733Z,88.71
2023-03-10T12:28:24.791Z,88.10
2023-03-10T12:29:24.697Z,88.82
2023-03-10T12:30:25.944Z,89.33
2023-03-10T12:31:24.680Z,89.23
2023-03-10T12:32:24.694Z,89.50
2023-03-10T12:33:24.677Z,89.43
2023-03-10T12:34:29.659Z,89.53
2023-03-10T12:35:24.631Z,89.12
2023-03-10T12:36:27.561Z,89.74
2023-03-10T12:37:24.597Z,88.41
2023-03-10T12:38:24.581Z,88.71
2023-03-10T12:39:24.593Z,89.43
2023-03-10T12:40:24.560Z,89.12
2023-03-10T12:41:24.569Z,89.53
2023-03-10T12:42:26.198Z,89.94
2023-03-10T12:43:24.523Z,89.78
2023-03-10T12:44:24.523Z,90.15
2023-03-10T12:45:29.558Z,89.89
2023-03-10T12:46:24.534Z,89.78
2023-03-10T12:47:24.537Z,89.78
2023-03-10T12:48:24.480Z,91.01
2023-03-10T12:49:24.492Z,90.91
2023-03-10T12:50:24.449Z,89.89
2023-03-10T12:51:24.440Z,91.01
2023-03-10T12:52:24.441Z,90.60